Strona główna
METAR-TAF:

METAR-TAF

Lotnisko :

Baza lotnicza

Salon-de-Provence, Francja

Szerokość geograficzna: 43-36N, Długość geograficzna: 005-06E, wysokość: 59 m

Aktualna obserwacja pogody

Raport powstał 31 minut temu, godzina 16:30 UTC
Wiatr 12 kt od zachodnio-północny zachód, zmienny między zachodnio-południowy zachód i północny zachód
Temperatura 21°C
Wilgotność 38%
Ciśnienie 1015 hPa
Widzialność 10 km lub więcej
Brak chmur poniżej 1500 m i brak chmur cumulonimbus

METAR: LFMY 171630Z AUTO 29012KT 250V320 CAVOK 21/06 Q1015

czas: 19:01 (17:01 UTC)

Prognoza

Raport powstał 3 godziny i 1 minut temu, godzina 14:00 UTC
Prognoza ważna od 17 godzina 15 UTC do 18 godzina 15 UTC
Wiatr 10 kt od północny zachód
Widzialność 10 km lub więcej
Brak chmur poniżej 1500 m i brak chmur cumulonimbus
Stopniowe zmiany
od 18 godzina 10 UTC do 18 godzina 12 UTC
Wiatr 5 kt od zachód

TAF: LFMY 171400Z 1715/1815 31010KT CAVOK BECMG 1810/1812 27005KT

Obserwacja i prognoza pogody dla ponad 4000 lotnisk (raport METAR i TAF).

Dostępne stacje oznaczono żółtymi i czerwonymi punktami na mapie.

Najedź kursorem aby zobaczyć nazwę stacji.

Kliknij aby zobaczyć obserwacje i prognozy pogody.

Aby zmienić mapę: kliknij na zielony przycisk z czarnym krzyżykiem, aby powiększyć; na zielony przycisk z myślnikiem, aby pomniejszyć; na zielone strzałki, aby przejść do map sąsiednich.


METAR-TAF: